createdAt,value
2023-03-03T08:37:23.857Z,58.72
2023-03-03T08:39:51.699Z,61.13
2023-03-03T08:42:19.519Z,59.67
2023-03-03T08:44:47.369Z,64.22
2023-03-03T08:47:15.208Z,57.75
2023-03-03T08:49:43.035Z,56.58
2023-03-03T08:52:10.876Z,56.80
2023-03-03T08:54:40.046Z,55.85
2023-03-03T08:57:08.019Z,55.90
2023-03-03T08:59:39.137Z,56.97
2023-03-03T09:02:07.207Z,57.00
2023-03-03T09:04:35.618Z,54.50
2023-03-03T09:07:03.508Z,57.72
2023-03-03T09:09:31.349Z,56.47
2023-03-03T09:12:04.093Z,60.97
2023-03-03T09:14:31.884Z,55.53
2023-03-03T09:16:59.722Z,55.67
2023-03-03T09:19:30.619Z,56.70
2023-03-03T09:22:03.144Z,56.67
2023-03-03T09:24:31.997Z,55.25
2023-03-03T09:27:01.165Z,56.38
2023-03-03T09:29:30.531Z,56.88
2023-03-03T09:32:01.109Z,50.95
2023-03-03T09:34:39.845Z,55.95
2023-03-03T09:37:19.918Z,52.63
2023-03-03T09:39:50.993Z,51.10
2023-03-03T09:42:49.173Z,53.65
2023-03-03T09:45:54.321Z,51.75
2023-03-03T09:48:57.003Z,54.53
2023-03-03T09:51:40.028Z,48.70
2023-03-03T09:54:27.850Z,56.50
2023-03-03T09:57:05.727Z,58.53
2023-03-03T09:59:47.521Z,53.83
2023-03-03T10:02:28.902Z,48.45
2023-03-03T10:05:09.395Z,54.97
2023-03-03T10:07:45.386Z,55.33
2023-03-03T10:10:46.909Z,47.50
2023-03-03T10:13:27.349Z,59.72
2023-03-03T10:16:13.514Z,53.80
2023-03-03T10:18:50.938Z,56.00
2023-03-03T10:21:25.359Z,56.05
2023-03-03T10:24:03.706Z,61.45
2023-03-03T10:27:13.600Z,57.60
2023-03-03T10:29:50.638Z,50.88
2023-03-03T10:32:33.689Z,59.13
2023-03-03T10:35:16.789Z,50.13
2023-03-03T10:37:56.178Z,49.15
2023-03-03T10:40:33.907Z,47.72
2023-03-03T10:43:29.948Z,42.17
2023-03-03T10:46:21.725Z,46.72
2023-03-03T10:49:17.815Z,57.88
2023-03-03T10:52:00.937Z,46.92
2023-03-03T10:54:43.936Z,47.30
2023-03-03T10:57:19.894Z,42.85
2023-03-03T11:00:17.783Z,47.45
2023-03-03T11:03:06.334Z,54.45
2023-03-03T11:05:43.731Z,53.85
2023-03-03T11:08:17.793Z,53.47
2023-03-03T11:10:55.886Z,50.53
2023-03-03T11:13:35.232Z,47.97
2023-03-03T11:16:15.866Z,50.05
2023-03-03T11:19:00.603Z,47.85
2023-03-03T11:21:36.207Z,50.75
2023-03-03T11:24:29.923Z,48.42
2023-03-03T11:27:08.949Z,44.35
2023-03-03T11:29:52.936Z,47.60
2023-03-03T11:32:28.332Z,49.65
2023-03-03T11:35:05.167Z,52.15
2023-03-03T11:37:46.569Z,43.80
2023-03-03T11:40:18.707Z,51.22
2023-03-03T11:42:57.391Z,46.55
2023-03-03T11:45:32.524Z,55.58
2023-03-03T11:48:07.433Z,47.92
2023-03-03T11:50:39.681Z,47.00
2023-03-03T11:56:01.115Z,46.42
2023-03-03T11:58:33.125Z,44.60
2023-03-03T12:01:09.373Z,48.13
2023-03-03T12:03:44.596Z,61.15
2023-03-03T12:06:27.238Z,56.00
2023-03-03T12:09:24.861Z,54.05
2023-03-03T12:11:57.479Z,59.10
2023-03-03T12:14:42.873Z,47.80
2023-03-03T12:17:26.289Z,57.40
2023-03-03T12:20:02.817Z,55.17
2023-03-03T12:22:37.157Z,57.72
2023-03-03T12:25:24.717Z,54.83
2023-03-03T12:28:01.303Z,60.97
2023-03-03T12:30:44.603Z,47.55
2023-03-03T12:33:20.520Z,47.85
2023-03-03T12:35:59.353Z,50.00
2023-03-03T12:38:36.272Z,44.33
2023-03-03T12:41:09.771Z,47.22
2023-03-03T12:43:54.008Z,44.25
2023-03-03T12:46:30.052Z,42.70
2023-03-03T12:48:58.043Z,46.75
2023-03-03T12:51:37.450Z,46.20
2023-03-03T12:54:25.260Z,39.10
2023-03-03T12:56:56.353Z,36.22
2023-03-03T12:59:38.857Z,42.88
2023-03-03T13:02:30.672Z,40.65
2023-03-03T13:05:06.834Z,43.83
2023-03-03T13:07:42.682Z,43.72
2023-03-03T13:10:19.462Z,45.38
2023-03-03T13:12:54.033Z,51.08
2023-03-03T13:15:32.217Z,47.85
2023-03-03T13:18:20.741Z,40.10
2023-03-03T13:20:54.946Z,40.80
2023-03-03T13:23:38.196Z,43.28
2023-03-03T13:26:11.548Z,43.30
2023-03-03T13:28:44.001Z,37.13
2023-03-03T13:31:19.979Z,37.50
2023-03-03T13:33:55.142Z,41.67
2023-03-03T13:36:27.502Z,37.50
2023-03-03T13:38:58.666Z,36.75
2023-03-03T13:41:32.499Z,46.47
2023-03-03T13:44:06.104Z,40.75
2023-03-03T13:46:41.767Z,44.55
2023-03-03T13:49:25.150Z,38.72
2023-03-03T13:52:01.777Z,37.65
2023-03-03T13:54:47.922Z,40.33
2023-03-03T13:57:25.568Z,39.97
2023-03-03T14:00:05.085Z,34.00
2023-03-03T14:02:58.241Z,37.47
2023-03-03T14:05:31.419Z,35.63
2023-03-03T14:08:02.736Z,36.03
2023-03-03T14:10:33.682Z,36.22
2023-03-03T14:13:07.390Z,32.38
2023-03-03T14:15:41.132Z,38.15
2023-03-03T14:18:25.065Z,30.48
2023-03-03T14:20:54.499Z,35.70
2023-03-03T14:23:28.070Z,34.45
2023-03-03T14:25:59.925Z,34.67
2023-03-03T14:28:29.645Z,34.83
2023-03-03T14:30:58.937Z,35.97
2023-03-03T14:33:32.532Z,36.88
2023-03-03T14:36:16.206Z,36.33
2023-03-03T14:38:51.662Z,34.65
2023-03-03T14:41:23.080Z,36.47
2023-03-03T14:44:01.972Z,39.33
2023-03-03T14:46:36.706Z,29.85
2023-03-03T14:49:08.306Z,32.75
2023-03-03T14:51:43.543Z,36.38
2023-03-03T14:54:22.038Z,36.55
2023-03-03T14:57:08.288Z,37.30
2023-03-03T14:59:36.492Z,34.90
2023-03-03T15:02:28.706Z,36.70
2023-03-03T15:07:41.061Z,38.83
2023-03-03T15:10:11.963Z,38.15
2023-03-03T15:12:41.770Z,37.90
2023-03-03T15:15:19.589Z,38.80
2023-03-03T15:17:57.495Z,40.03
2023-03-03T15:20:35.927Z,40.92
2023-03-03T15:23:20.558Z,35.53
2023-03-03T15:25:58.952Z,46.22
2023-03-03T15:28:46.978Z,36.60
2023-03-03T15:31:23.520Z,47.13
2023-03-03T15:34:02.829Z,33.03
2023-03-03T15:36:39.781Z,35.90
2023-03-03T15:39:15.397Z,36.60
2023-03-03T15:41:49.909Z,38.85
2023-03-03T15:44:24.439Z,38.03
2023-03-03T15:47:05.773Z,38.03
2023-03-03T15:50:16.347Z,41.47
2023-03-03T15:52:56.557Z,39.13
2023-03-03T15:55:39.265Z,38.00
2023-03-03T15:58:50.196Z,40.00
2023-03-03T16:01:25.832Z,37.10
2023-03-03T16:03:58.187Z,43.35
